Time;durP1;ratioP1;P1;durP2;ratioP2;P2;SDS_P1;SDS_P2;PMS_P1;PMS_P2;Temp;Humidity;BMP_temperature;BMP_pressure;BME280_temperature;BME280_humidity;BME280_pressure;Samples;Min_cycle;Max_cycle;Signal;HPM_P1;HPM_P2
2022/09/17 00:00:38;;;;;;;0.80;0.70;;;25.10;72.90;;;;;;5096141;28;20463;-88
2022/09/17 00:03:05;;;;;;;1.03;0.90;;;25.10;73.30;;;;;;5095891;28;20918;-87
2022/09/17 00:05:32;;;;;;;0.90;0.80;;;25.10;73.20;;;;;;5095911;28;20450;-82
2022/09/17 00:07:59;;;;;;;0.97;0.80;;;25.10;73.30;;;;;;5095777;28;20840;-84
2022/09/17 00:10:26;;;;;;;1.03;0.83;;;25.10;73.70;;;;;;5095656;28;20479;-82
2022/09/17 00:12:55;;;;;;;0.97;0.87;;;25.10;73.70;;;;;;5095712;28;20807;-82
2022/09/17 00:15:21;;;;;;;0.87;0.83;;;25.10;73.50;;;;;;5095873;28;20436;-82
2022/09/17 00:17:53;;;;;;;0.90;0.80;;;25.10;73.50;;;;;;5095614;28;20528;-81
2022/09/17 00:20:20;;;;;;;0.70;0.60;;;25.10;73.70;;;;;;5095418;28;20551;-81
2022/09/17 00:22:47;;;;;;;0.83;0.60;;;25.10;73.40;;;;;;5095612;28;20436;-82
2022/09/17 00:25:14;;;;;;;0.90;0.70;;;25.10;73.40;;;;;;5095279;28;20539;-83
2022/09/17 00:27:40;;;;;;;0.90;0.80;;;25.10;73.80;;;;;;5095521;28;20468;-89
2022/09/17 00:30:11;;;;;;;0.80;0.70;;;25.10;73.50;;;;;;5095178;28;20584;-84
2022/09/17 00:32:38;;;;;;;0.90;0.70;;;25.10;73.40;;;;;;5095510;28;20443;-82
2022/09/17 00:35:06;;;;;;;0.80;0.70;;;25.00;73.60;;;;;;5095385;28;20523;-90
2022/09/17 00:37:33;;;;;;;0.90;0.80;;;25.00;73.40;;;;;;5095004;28;20798;-82
2022/09/17 00:40:00;;;;;;;1.03;0.80;;;25.00;73.70;;;;;;5095044;28;20446;-85
2022/09/17 00:42:26;;;;;;;0.90;0.80;;;25.10;73.80;;;;;;5095191;28;20526;-82
2022/09/17 00:44:55;;;;;;;0.80;0.60;;;25.00;74.20;;;;;;5095305;28;20444;-82
2022/09/17 00:47:30;;;;;;;0.70;0.60;;;25.10;74.70;;;;;;5095261;28;20440;-82
2022/09/17 00:50:01;;;;;;;1.00;0.90;;;25.10;74.20;;;;;;5095176;28;20483;-82
2022/09/17 00:52:33;;;;;;;0.77;0.67;;;25.00;73.90;;;;;;5095316;28;20436;-88
2022/09/17 00:55:07;;;;;;;1.00;0.73;;;24.90;74.10;;;;;;5094939;28;20447;-86
2022/09/17 00:57:35;;;;;;;0.70;0.60;;;25.00;74.10;;;;;;5095140;28;20435;-81
2022/09/17 01:00:03;;;;;;;0.97;0.80;;;25.00;74.00;;;;;;5094718;28;20993;-87
2022/09/17 01:02:32;;;;;;;1.00;0.80;;;25.00;74.00;;;;;;5094624;28;20526;-87
2022/09/17 01:04:58;;;;;;;1.27;0.80;;;25.00;73.80;;;;;;5094451;28;20443;-81
2022/09/17 01:07:41;;;;;;;0.90;0.80;;;25.00;73.90;;;;;;5094635;28;21009;-81
2022/09/17 01:10:20;;;;;;;0.90;0.70;;;25.10;73.90;;;;;;5094602;28;20479;-81
2022/09/17 01:13:03;;;;;;;0.80;0.67;;;25.00;74.00;;;;;;5094680;28;20447;-82
2022/09/17 01:15:37;;;;;;;0.90;0.70;;;25.00;74.10;;;;;;5078430;28;20776;-86
2022/09/17 01:18:22;;;;;;;0.80;0.70;;;25.00;75.20;;;;;;5094667;28;20442;-82
2022/09/17 01:21:30;;;;;;;0.80;0.70;;;25.00;74.20;;;;;;5094556;28;20447;-81
2022/09/17 01:24:31;;;;;;;0.90;0.70;;;25.00;74.20;;;;;;5094252;28;20446;-82
2022/09/17 01:27:41;;;;;;;0.90;0.80;;;25.00;74.20;;;;;;5094273;28;20475;-81
2022/09/17 01:31:08;;;;;;;0.90;0.70;;;25.00;74.20;;;;;;5094221;28;20492;-82
2022/09/17 01:33:43;;;;;;;1.10;0.70;;;25.00;74.20;;;;;;5012234;28;20475;-81
2022/09/17 01:36:20;;;;;;;1.07;0.80;;;25.00;74.90;;;;;;5012283;28;20443;-81
2022/09/17 01:38:54;;;;;;;0.97;0.87;;;25.00;75.10;;;;;;5067338;28;20528;-82
2022/09/17 01:41:29;;;;;;;0.80;0.70;;;25.00;74.60;;;;;;5093968;28;20436;-81
2022/09/17 01:44:01;;;;;;;0.93;0.70;;;25.00;74.90;;;;;;5094252;28;20771;-81
2022/09/17 01:46:32;;;;;;;1.00;0.80;;;25.00;74.80;;;;;;5093985;28;20464;-82
2022/09/17 01:49:04;;;;;;;0.80;0.70;;;25.00;74.90;;;;;;5094067;28;20443;-85
2022/09/17 01:51:38;;;;;;;0.93;0.70;;;25.00;74.90;;;;;;5094126;28;20443;-82
2022/09/17 01:54:07;;;;;;;0.80;0.70;;;25.00;75.10;;;;;;5093965;28;20451;-82
2022/09/17 01:56:38;;;;;;;1.23;1.03;;;25.00;74.80;;;;;;5093649;28;20471;-82
2022/09/17 01:59:11;;;;;;;1.10;0.80;;;25.00;74.50;;;;;;5093901;28;20440;-83
2022/09/17 02:01:41;;;;;;;0.90;0.70;;;25.00;74.80;;;;;;5093861;28;20860;-88
2022/09/17 02:04:14;;;;;;;1.00;0.67;;;25.00;74.60;;;;;;5093729;28;20440;-82
2022/09/17 02:06:46;;;;;;;1.00;0.90;;;25.00;74.60;;;;;;5094176;28;20440;-81
2022/09/17 02:09:17;;;;;;;0.80;0.70;;;25.00;74.20;;;;;;5093610;28;20450;-83
2022/09/17 02:11:50;;;;;;;0.80;0.60;;;25.00;73.90;;;;;;5093649;28;20450;-82
2022/09/17 02:14:24;;;;;;;0.80;0.70;;;25.00;73.80;;;;;;5093472;28;20436;-83
2022/09/17 02:16:56;;;;;;;1.07;0.80;;;25.00;73.30;;;;;;5093188;28;20454;-82
2022/09/17 02:19:28;;;;;;;0.80;0.70;;;25.00;73.30;;;;;;5093387;28;20566;-83
2022/09/17 02:22:02;;;;;;;1.10;0.83;;;25.00;73.20;;;;;;5093594;28;20530;-83
2022/09/17 02:24:36;;;;;;;1.10;0.83;;;25.00;73.30;;;;;;5093433;28;20442;-85
2022/09/17 02:27:06;;;;;;;0.87;0.70;;;25.00;73.50;;;;;;5093465;28;20511;-83
2022/09/17 02:29:35;;;;;;;1.93;0.87;;;25.00;73.40;;;;;;5093260;28;20837;-89
2022/09/17 02:32:03;;;;;;;0.80;0.70;;;25.00;73.10;;;;;;5093478;28;20431;-88
2022/09/17 02:34:32;;;;;;;0.97;0.80;;;25.00;73.50;;;;;;5093112;28;20537;-87
2022/09/17 02:36:59;;;;;;;0.90;0.80;;;25.00;73.90;;;;;;5093245;28;20442;-82
2022/09/17 02:39:27;;;;;;;1.00;0.87;;;25.00;74.00;;;;;;5093339;28;20438;-82
2022/09/17 02:42:03;;;;;;;0.90;0.70;;;25.00;74.40;;;;;;5093243;28;20432;-81
2022/09/17 02:44:42;;;;;;;0.80;0.60;;;25.00;74.20;;;;;;5093572;28;20485;-87
2022/09/17 02:47:51;;;;;;;1.33;0.77;;;24.90;74.50;;;;;;5093577;28;20785;-82
2022/09/17 02:50:27;;;;;;;0.80;0.70;;;25.00;74.70;;;;;;5093225;28;20491;-82
2022/09/17 02:53:13;;;;;;;0.90;0.80;;;24.90;74.40;;;;;;5093198;28;20447;-82
2022/09/17 02:55:46;;;;;;;1.03;0.80;;;24.90;74.40;;;;;;5093285;28;20447;-81
2022/09/17 02:58:22;;;;;;;0.80;0.70;;;24.90;75.30;;;;;;5093415;28;20433;-82
2022/09/17 03:00:50;;;;;;;1.00;0.80;;;24.90;75.50;;;;;;5093108;28;20470;-81
2022/09/17 03:03:22;;;;;;;1.00;0.70;;;24.90;77.00;;;;;;5093159;28;20447;-82
2022/09/17 03:05:52;;;;;;;0.90;0.80;;;24.90;75.90;;;;;;5093141;28;20462;-82
2022/09/17 03:08:19;;;;;;;1.17;0.90;;;24.90;76.80;;;;;;5093092;28;20469;-82
2022/09/17 03:10:48;;;;;;;0.87;0.73;;;24.90;76.90;;;;;;5092990;28;20484;-81
2022/09/17 03:13:15;;;;;;;0.80;0.70;;;24.90;77.30;;;;;;5093143;28;20440;-83
2022/09/17 03:15:42;;;;;;;1.00;0.70;;;24.90;77.80;;;;;;5074963;28;20443;-81
2022/09/17 03:18:09;;;;;;;1.43;0.70;;;24.90;77.30;;;;;;5092514;28;20448;-81
2022/09/17 03:20:36;;;;;;;0.80;0.60;;;24.90;78.50;;;;;;5092662;28;20539;-82
2022/09/17 03:23:04;;;;;;;1.23;1.13;;;24.90;78.50;;;;;;5092760;28;20517;-88
2022/09/17 03:25:31;;;;;;;0.90;0.80;;;24.90;78.80;;;;;;5092685;28;20816;-81
2022/09/17 03:27:58;;;;;;;0.93;0.83;;;24.90;78.60;;;;;;5094683;28;20443;-82
2022/09/17 03:30:25;;;;;;;0.83;0.70;;;24.90;79.20;;;;;;5096541;28;20594;-82
2022/09/17 03:32:51;;;;;;;1.00;0.90;;;24.90;79.60;;;;;;5096452;28;20944;-82
2022/09/17 03:35:18;;;;;;;0.80;0.60;;;24.90;78.80;;;;;;5096447;28;20436;-82
2022/09/17 03:37:46;;;;;;;1.00;0.80;;;24.90;79.50;;;;;;5096398;28;20440;-82
2022/09/17 03:40:14;;;;;;;1.90;0.70;;;24.90;80.10;;;;;;5096262;28;20919;-82
2022/09/17 03:42:41;;;;;;;0.90;0.80;;;24.90;79.90;;;;;;5096283;28;20440;-82
2022/09/17 03:45:09;;;;;;;0.90;0.80;;;24.90;80.20;;;;;;5096472;28;20866;-82
2022/09/17 03:47:36;;;;;;;0.80;0.70;;;24.90;80.90;;;;;;5096332;28;20445;-82
2022/09/17 03:50:03;;;;;;;0.83;0.63;;;24.90;80.50;;;;;;5096404;28;20490;-88
2022/09/17 03:52:30;;;;;;;1.00;0.70;;;24.90;80.90;;;;;;5096388;28;20442;-87
2022/09/17 03:54:57;;;;;;;0.90;0.70;;;24.90;80.50;;;;;;5096008;28;20852;-82
2022/09/17 03:57:25;;;;;;;0.80;0.67;;;24.90;81.20;;;;;;5096077;28;20531;-88
2022/09/17 03:59:52;;;;;;;0.80;0.60;;;24.80;80.80;;;;;;5096293;28;20521;-81
2022/09/17 04:02:19;;;;;;;0.90;0.70;;;24.90;80.50;;;;;;5096239;28;20436;-82
2022/09/17 04:04:46;;;;;;;1.00;0.90;;;24.90;80.00;;;;;;5095634;28;20547;-82
2022/09/17 04:07:13;;;;;;;0.80;0.70;;;24.90;80.00;;;;;;5095777;28;20444;-82
2022/09/17 04:09:39;;;;;;;0.90;0.80;;;24.90;81.20;;;;;;5095873;28;20442;-81
2022/09/17 04:12:06;;;;;;;0.83;0.73;;;24.90;80.90;;;;;;5095602;28;20440;-87
2022/09/17 04:14:35;;;;;;;1.20;0.80;;;24.90;81.30;;;;;;5095770;28;20444;-88
2022/09/17 04:17:01;;;;;;;0.90;0.80;;;24.90;81.20;;;;;;5095688;28;20471;-87
2022/09/17 04:19:28;;;;;;;0.90;0.70;;;24.90;80.70;;;;;;5095123;28;20475;-81
2022/09/17 04:21:55;;;;;;;0.80;0.70;;;24.90;80.60;;;;;;5095441;28;20454;-81
2022/09/17 04:24:22;;;;;;;0.90;0.80;;;24.80;80.20;;;;;;5095623;28;20535;-87
2022/09/17 04:26:50;;;;;;;0.80;0.63;;;24.80;80.10;;;;;;5095464;28;20495;-82
2022/09/17 04:29:17;;;;;;;0.90;0.60;;;24.80;79.60;;;;;;5095086;28;20483;-87
2022/09/17 04:31:45;;;;;;;0.80;0.60;;;24.90;79.40;;;;;;5095555;28;20491;-82
2022/09/17 04:34:12;;;;;;;0.80;0.80;;;24.90;79.50;;;;;;5095125;28;20444;-82
2022/09/17 04:36:39;;;;;;;0.90;0.70;;;24.90;79.40;;;;;;5094961;28;20446;-82
2022/09/17 04:39:05;;;;;;;0.80;0.70;;;24.80;79.40;;;;;;5094799;28;20535;-83
2022/09/17 04:41:32;;;;;;;0.83;0.70;;;24.80;79.10;;;;;;5095324;28;20774;-82
2022/09/17 04:43:59;;;;;;;0.93;0.80;;;24.80;78.80;;;;;;5095089;28;20448;-86
2022/09/17 04:46:26;;;;;;;0.90;0.70;;;24.80;79.00;;;;;;5094992;28;20538;-81
2022/09/17 04:48:54;;;;;;;1.10;0.70;;;24.80;79.60;;;;;;5095157;28;20933;-82
2022/09/17 04:51:21;;;;;;;1.47;0.60;;;24.90;79.60;;;;;;5094850;28;20566;-88
2022/09/17 04:53:48;;;;;;;1.27;0.70;;;24.80;79.50;;;;;;5094851;28;20944;-82
2022/09/17 04:56:15;;;;;;;0.80;0.70;;;24.90;80.50;;;;;;5094998;28;20535;-81
2022/09/17 04:58:41;;;;;;;1.00;0.80;;;24.80;80.20;;;;;;5095016;28;20460;-81
2022/09/17 05:01:08;;;;;;;0.90;0.70;;;24.80;80.00;;;;;;5094748;28;20550;-82
2022/09/17 05:03:35;;;;;;;1.13;0.80;;;24.80;79.10;;;;;;5094736;28;20432;-82
2022/09/17 05:06:03;;;;;;;0.87;0.70;;;24.80;79.80;;;;;;5094689;28;20459;-88
2022/09/17 05:08:30;;;;;;;0.90;0.80;;;24.80;79.30;;;;;;5094532;28;20441;-87
2022/09/17 05:10:57;;;;;;;0.90;0.60;;;24.80;80.40;;;;;;5094462;28;20570;-82
2022/09/17 05:13:24;;;;;;;0.90;0.77;;;24.80;80.10;;;;;;5094471;28;20522;-82
2022/09/17 05:15:51;;;;;;;0.80;0.60;;;24.80;79.30;;;;;;5094377;28;20444;-82
2022/09/17 05:18:18;;;;;;;0.77;0.60;;;24.80;79.10;;;;;;5094240;28;20447;-82
2022/09/17 05:20:44;;;;;;;0.90;0.70;;;24.80;79.30;;;;;;5094288;28;20529;-82
2022/09/17 05:23:12;;;;;;;1.10;0.70;;;24.80;79.30;;;;;;5094486;28;20867;-88
2022/09/17 05:25:39;;;;;;;0.90;0.80;;;24.80;79.40;;;;;;5094383;28;20436;-82
2022/09/17 05:28:06;;;;;;;0.90;0.70;;;24.80;80.10;;;;;;5094373;28;20534;-82
2022/09/17 05:30:33;;;;;;;0.80;0.80;;;24.80;78.90;;;;;;5094152;28;20488;-87
2022/09/17 05:33:01;;;;;;;0.90;0.70;;;24.80;79.00;;;;;;5094204;28;20554;-87
2022/09/17 05:35:29;;;;;;;1.00;0.90;;;24.80;78.60;;;;;;5094124;28;20440;-82
2022/09/17 05:38:00;;;;;;;1.00;0.90;;;24.80;79.00;;;;;;5094028;28;20444;-82
2022/09/17 05:40:29;;;;;;;0.90;0.73;;;24.80;79.50;;;;;;5093939;28;20444;-82
2022/09/17 05:42:58;;;;;;;1.00;0.77;;;24.80;79.70;;;;;;5093778;28;20926;-81
2022/09/17 05:45:25;;;;;;;0.90;0.80;;;24.80;79.70;;;;;;5094089;28;20459;-82
2022/09/17 05:47:55;;;;;;;1.00;0.70;;;24.80;79.50;;;;;;5094113;28;20433;-82
2022/09/17 05:50:22;;;;;;;0.80;0.70;;;24.80;78.90;;;;;;5093468;28;20458;-88
2022/09/17 05:52:49;;;;;;;0.80;0.60;;;24.80;78.90;;;;;;5093791;28;20436;-81
2022/09/17 05:55:16;;;;;;;0.80;0.70;;;24.80;79.00;;;;;;5093926;28;20439;-82
2022/09/17 05:57:44;;;;;;;1.17;0.80;;;24.80;79.10;;;;;;5093649;28;20528;-82
2022/09/17 06:00:12;;;;;;;0.90;0.80;;;24.80;79.40;;;;;;5093600;28;21021;-82
2022/09/17 06:02:39;;;;;;;0.70;0.60;;;24.80;79.00;;;;;;5093870;28;20440;-82
2022/09/17 06:05:07;;;;;;;0.90;0.70;;;24.80;80.10;;;;;;5093894;28;20439;-85
2022/09/17 06:07:35;;;;;;;0.80;0.70;;;24.80;79.10;;;;;;5093680;28;20445;-87
2022/09/17 06:10:02;;;;;;;0.90;0.70;;;24.80;80.30;;;;;;5093999;28;20440;-82
2022/09/17 06:12:28;;;;;;;0.90;0.60;;;24.80;80.00;;;;;;5093325;28;20480;-81
2022/09/17 06:14:56;;;;;;;0.80;0.60;;;24.80;79.40;;;;;;5093602;28;20458;-81
2022/09/17 06:17:23;;;;;;;1.97;0.97;;;24.80;79.60;;;;;;5093631;28;20527;-82
2022/09/17 06:19:50;;;;;;;1.37;0.80;;;24.80;79.80;;;;;;5093218;28;20467;-82
2022/09/17 06:22:19;;;;;;;0.70;0.60;;;24.80;80.90;;;;;;5093684;28;20443;-82
2022/09/17 06:24:46;;;;;;;0.87;0.73;;;24.80;80.40;;;;;;5093379;28;20471;-83
2022/09/17 06:27:13;;;;;;;0.80;0.70;;;24.80;80.50;;;;;;5093236;28;20487;-82
2022/09/17 06:29:40;;;;;;;1.10;0.70;;;24.80;80.50;;;;;;5093500;28;20467;-82
2022/09/17 06:32:11;;;;;;;1.10;0.80;;;24.80;81.00;;;;;;5093266;28;20490;-88
2022/09/17 06:34:38;;;;;;;0.97;0.70;;;24.80;81.70;;;;;;5093549;28;20460;-88
2022/09/17 06:37:06;;;;;;;0.80;0.80;;;24.80;82.30;;;;;;5093533;28;20469;-88
2022/09/17 06:39:33;;;;;;;0.97;0.87;;;24.80;81.40;;;;;;5093273;28;20530;-87
2022/09/17 06:41:59;;;;;;;1.20;0.70;;;24.80;81.80;;;;;;5092990;28;20453;-86
2022/09/17 06:44:26;;;;;;;0.90;0.70;;;24.80;82.00;;;;;;5093217;28;20530;-82
2022/09/17 06:46:53;;;;;;;0.90;0.70;;;24.80;83.00;;;;;;5093434;28;20874;-82
2022/09/17 06:49:21;;;;;;;1.00;0.73;;;24.80;82.40;;;;;;5093409;28;20432;-82
2022/09/17 06:51:48;;;;;;;0.80;0.60;;;24.80;82.10;;;;;;5093226;28;21020;-82
2022/09/17 06:54:15;;;;;;;1.10;0.87;;;24.80;82.40;;;;;;5093325;28;20532;-82
2022/09/17 06:56:42;;;;;;;1.00;0.73;;;24.80;83.40;;;;;;5093360;28;20439;-82
2022/09/17 06:59:08;;;;;;;0.83;0.67;;;24.80;83.20;;;;;;5093093;28;21033;-87
2022/09/17 07:01:35;;;;;;;1.20;0.80;;;24.80;83.60;;;;;;5094863;28;20450;-88
2022/09/17 07:04:02;;;;;;;0.80;0.70;;;24.80;84.20;;;;;;5097034;28;20479;-87
2022/09/17 07:06:31;;;;;;;0.80;0.70;;;24.80;85.70;;;;;;5096925;28;20927;-87
2022/09/17 07:08:58;;;;;;;0.90;0.80;;;24.80;85.90;;;;;;5097156;28;20440;-81
2022/09/17 07:11:25;;;;;;;0.80;0.60;;;24.80;87.00;;;;;;5097266;28;20483;-82
2022/09/17 07:13:52;;;;;;;1.10;0.87;;;24.80;89.90;;;;;;5096759;28;20431;-82
2022/09/17 07:16:19;;;;;;;0.80;0.70;;;24.70;89.10;;;;;;5096871;28;20935;-82
2022/09/17 07:18:46;;;;;;;1.07;0.70;;;24.70;88.50;;;;;;5096613;28;20478;-82
2022/09/17 07:21:13;;;;;;;0.83;0.70;;;24.80;89.10;;;;;;5096550;28;20443;-82
2022/09/17 07:23:41;;;;;;;0.80;0.67;;;24.80;88.80;;;;;;5096756;28;20856;-88
2022/09/17 07:26:11;;;;;;;1.13;0.80;;;24.80;89.00;;;;;;5096575;28;20795;-82
2022/09/17 07:28:39;;;;;;;0.80;0.67;;;24.80;89.80;;;;;;5096632;28;20446;-82
2022/09/17 07:31:06;;;;;;;0.80;0.60;;;24.80;89.40;;;;;;5096583;28;20479;-88
2022/09/17 07:33:35;;;;;;;0.73;0.60;;;24.80;89.00;;;;;;5096643;28;20436;-87
2022/09/17 07:36:04;;;;;;;1.40;0.80;;;24.80;87.50;;;;;;5096496;28;20446;-88
2022/09/17 07:38:32;;;;;;;1.17;0.77;;;24.80;84.70;;;;;;5096415;28;20432;-88
2022/09/17 07:41:03;;;;;;;1.00;0.70;;;24.80;83.60;;;;;;5096477;28;20933;-86
2022/09/17 07:43:32;;;;;;;0.90;0.80;;;24.80;82.10;;;;;;5096248;28;20444;-83
2022/09/17 07:46:00;;;;;;;1.03;0.80;;;24.80;81.90;;;;;;5096648;28;20432;-82
2022/09/17 07:48:28;;;;;;;0.90;0.70;;;24.80;81.50;;;;;;5096417;28;20443;-82
2022/09/17 07:50:55;;;;;;;0.80;0.80;;;24.80;80.50;;;;;;5096471;28;20442;-82
2022/09/17 07:53:23;;;;;;;0.80;0.70;;;24.70;80.30;;;;;;5096473;28;20448;-81
2022/09/17 07:55:53;;;;;;;0.90;0.80;;;24.80;80.20;;;;;;5096107;28;20670;-82
2022/09/17 07:58:22;;;;;;;0.80;0.70;;;24.80;81.00;;;;;;5096199;28;20446;-81
2022/09/17 08:00:49;;;;;;;0.90;0.70;;;24.80;80.60;;;;;;5095875;28;20550;-82
2022/09/17 08:03:16;;;;;;;0.80;0.70;;;24.80;80.10;;;;;;5096086;28;20814;-82
2022/09/17 08:05:43;;;;;;;0.90;0.70;;;24.80;80.10;;;;;;5095866;28;20443;-84
2022/09/17 08:08:10;;;;;;;0.87;0.70;;;24.80;80.70;;;;;;5095907;28;20526;-82
2022/09/17 08:10:36;;;;;;;0.80;0.70;;;24.80;80.70;;;;;;5095952;28;20867;-87
2022/09/17 08:13:03;;;;;;;0.90;0.70;;;24.80;80.80;;;;;;5094666;28;20483;-82
2022/09/17 08:15:31;;;;;;;0.90;0.70;;;24.80;82.10;;;;;;5095939;28;20444;-85
2022/09/17 08:17:58;;;;;;;0.93;0.80;;;24.80;83.30;;;;;;5095853;28;20450;-82
2022/09/17 08:20:25;;;;;;;0.90;0.80;;;24.80;82.90;;;;;;5095377;28;20480;-82
2022/09/17 08:22:59;;;;;;;1.00;0.70;;;24.80;81.90;;;;;;5095780;28;20447;-82
2022/09/17 08:25:26;;;;;;;1.00;0.77;;;24.80;82.40;;;;;;5095572;28;20432;-82
2022/09/17 08:27:54;;;;;;;1.10;0.90;;;24.80;82.90;;;;;;5095732;28;20439;-82
2022/09/17 08:30:21;;;;;;;0.80;0.60;;;24.80;82.40;;;;;;5095506;28;20470;-82
2022/09/17 08:32:49;;;;;;;0.80;0.60;;;24.80;82.40;;;;;;5095381;28;20488;-82
2022/09/17 08:35:16;;;;;;;0.90;0.70;;;24.80;79.80;;;;;;5095458;28;20923;-82
2022/09/17 08:37:43;;;;;;;0.80;0.70;;;24.80;80.50;;;;;;5095273;28;20447;-88
2022/09/17 08:40:14;;;;;;;1.10;0.80;;;24.80;81.70;;;;;;5095000;28;20462;-82
2022/09/17 08:42:53;;;;;;;0.93;0.80;;;24.80;83.20;;;;;;5095053;28;20498;-82
2022/09/17 08:45:20;;;;;;;0.87;0.70;;;24.80;82.60;;;;;;5095058;28;20487;-82
2022/09/17 08:47:47;;;;;;;0.93;0.70;;;24.80;84.00;;;;;;5095309;28;20527;-87
2022/09/17 08:50:19;;;;;;;0.80;0.67;;;24.80;84.30;;;;;;5095465;28;20444;-82
2022/09/17 08:53:16;;;;;;;0.80;0.60;;;24.80;84.60;;;;;;5095087;28;20985;-87
2022/09/17 08:55:46;;;;;;;0.90;0.80;;;24.80;85.20;;;;;;5095247;28;21129;-82
2022/09/17 08:58:48;;;;;;;0.90;0.80;;;24.80;85.30;;;;;;5095065;28;20436;-82
2022/09/17 09:01:27;;;;;;;1.30;0.80;;;24.80;86.80;;;;;;5092190;28;20471;-82
2022/09/17 09:04:23;;;;;;;1.20;0.70;;;24.80;87.60;;;;;;5094778;28;20432;-82
2022/09/17 09:06:59;;;;;;;1.27;0.80;;;24.80;87.40;;;;;;5086321;28;20531;-82
2022/09/17 09:09:30;;;;;;;0.80;0.60;;;24.80;89.40;;;;;;5094804;28;20444;-82
2022/09/17 09:12:05;;;;;;;0.83;0.60;;;24.80;89.70;;;;;;5094564;28;20560;-82
2022/09/17 09:14:36;;;;;;;0.80;0.70;;;24.90;90.20;;;;;;5094705;28;20445;-87
2022/09/17 09:17:07;;;;;;;1.00;0.80;;;24.80;90.20;;;;;;5094562;28;20436;-82
2022/09/17 09:19:42;;;;;;;1.00;0.80;;;24.80;91.30;;;;;;5094531;28;20841;-87
2022/09/17 09:22:25;;;;;;;0.97;0.60;;;24.90;92.30;;;;;;5094468;28;20440;-82
2022/09/17 09:25:03;;;;;;;0.80;0.80;;;24.80;92.50;;;;;;5093238;28;20530;-82
2022/09/17 09:27:37;;;;;;;0.97;0.70;;;24.80;93.10;;;;;;5094311;28;20436;-84
2022/09/17 09:30:06;;;;;;;0.90;0.80;;;24.90;96.00;;;;;;5094304;28;20533;-82
2022/09/17 09:32:48;;;;;;;1.00;0.90;;;25.00;96.90;;;;;;5094380;28;20489;-87
2022/09/17 09:35:18;;;;;;;0.80;0.70;;;24.90;96.80;;;;;;5094343;28;20569;-87
2022/09/17 09:37:54;;;;;;;0.80;0.60;;;24.80;96.80;;;;;;5093857;28;20432;-82
2022/09/17 09:40:31;;;;;;;0.80;0.60;;;24.90;97.00;;;;;;5093557;28;20446;-82
2022/09/17 09:43:03;;;;;;;0.80;0.63;;;24.90;97.00;;;;;;5093747;28;20439;-82
2022/09/17 09:45:43;;;;;;;0.90;0.73;;;24.90;96.80;;;;;;5094147;28;20436;-86
2022/09/17 09:48:21;;;;;;;0.90;0.80;;;24.90;96.90;;;;;;5093897;28;20447;-81
2022/09/17 09:51:01;;;;;;;0.90;0.70;;;24.90;96.90;;;;;;5094247;28;20448;-82
2022/09/17 09:53:41;;;;;;;1.17;0.87;;;24.90;97.20;;;;;;5093927;28;20487;-82
2022/09/17 09:56:33;;;;;;;0.80;0.80;;;24.90;96.70;;;;;;5093901;28;20443;-82
2022/09/17 09:59:00;;;;;;;1.30;0.73;;;24.80;96.60;;;;;;5093794;28;20436;-86
2022/09/17 10:01:30;;;;;;;1.30;1.00;;;24.80;96.70;;;;;;5093946;28;20442;-87
2022/09/17 10:03:57;;;;;;;0.90;0.70;;;24.90;96.80;;;;;;5093729;28;20454;-82
2022/09/17 10:06:29;;;;;;;0.70;0.60;;;24.80;96.90;;;;;;5093905;28;20930;-82
2022/09/17 10:09:15;;;;;;;0.80;0.60;;;24.90;96.60;;;;;;5093698;28;20436;-82
2022/09/17 10:11:42;;;;;;;1.00;0.80;;;24.90;96.60;;;;;;5093604;28;20520;-81
2022/09/17 10:14:24;;;;;;;1.10;0.80;;;24.80;96.60;;;;;;5093558;28;20793;-82
2022/09/17 10:17:09;;;;;;;0.83;0.70;;;24.90;96.40;;;;;;5093662;28;20447;-81
2022/09/17 10:19:36;;;;;;;0.80;0.70;;;24.90;96.60;;;;;;5093311;28;20542;-81
2022/09/17 10:22:19;;;;;;;0.80;0.60;;;24.80;96.60;;;;;;5093693;28;20792;-87
2022/09/17 10:24:48;;;;;;;1.03;0.80;;;24.90;96.50;;;;;;5093742;28;20506;-81
2022/09/17 10:27:18;;;;;;;0.97;0.80;;;24.90;96.70;;;;;;5093401;28;20441;-81
2022/09/17 10:29:49;;;;;;;1.00;0.83;;;24.80;96.50;;;;;;5093324;28;20452;-81
2022/09/17 10:32:18;;;;;;;1.73;0.73;;;24.90;96.50;;;;;;5093341;28;20522;-81
2022/09/17 10:34:58;;;;;;;0.80;0.70;;;24.90;96.40;;;;;;5093298;28;20451;-87
2022/09/17 10:37:41;;;;;;;1.40;0.80;;;24.90;96.30;;;;;;5096399;28;20444;-81
2022/09/17 10:40:27;;;;;;;0.80;0.70;;;24.90;96.40;;;;;;5097457;28;20482;-86
2022/09/17 10:43:19;;;;;;;0.80;0.70;;;24.90;96.30;;;;;;5097400;28;20436;-81
2022/09/17 10:45:57;;;;;;;1.17;0.73;;;24.90;96.10;;;;;;5097344;28;20439;-87
2022/09/17 10:48:27;;;;;;;0.80;0.63;;;24.90;96.10;;;;;;5097422;28;20857;-81
2022/09/17 10:50:55;;;;;;;0.80;0.70;;;24.90;96.20;;;;;;5097533;28;20444;-82
2022/09/17 10:53:24;;;;;;;1.33;0.80;;;24.90;96.40;;;;;;5097297;28;20486;-81
2022/09/17 10:55:58;;;;;;;1.13;0.70;;;24.90;96.30;;;;;;5097282;28;20438;-81
2022/09/17 10:58:43;;;;;;;0.80;0.70;;;24.90;96.10;;;;;;5097103;28;20445;-82
2022/09/17 11:01:27;;;;;;;0.87;0.70;;;24.90;96.10;;;;;;5097116;28;20540;-87
2022/09/17 11:04:22;;;;;;;0.80;0.60;;;24.90;96.60;;;;;;5097021;28;20451;-81
2022/09/17 11:07:32;;;;;;;1.20;0.67;;;24.90;96.00;;;;;;5097102;28;20844;-81
2022/09/17 11:10:09;;;;;;;1.10;0.80;;;24.90;96.00;;;;;;5097093;28;20444;-81
2022/09/17 11:13:04;;;;;;;0.80;0.70;;;24.80;96.30;;;;;;5096830;28;20487;-82
2022/09/17 11:15:42;;;;;;;0.90;0.80;;;24.90;96.20;;;;;;5096636;28;20435;-86
2022/09/17 11:18:36;;;;;;;1.20;0.70;;;24.90;96.30;;;;;;5096455;28;20802;-82
2022/09/17 11:21:23;;;;;;;1.00;0.80;;;24.90;96.50;;;;;;5096719;28;20436;-82
2022/09/17 11:24:07;;;;;;;1.00;0.80;;;24.90;96.80;;;;;;5096624;28;20454;-81
2022/09/17 11:26:39;;;;;;;0.80;0.70;;;24.90;96.80;;;;;;5096760;28;20439;-87
2022/09/17 11:29:35;;;;;;;1.20;0.70;;;24.90;96.60;;;;;;5096375;28;20443;-81
2022/09/17 11:32:13;;;;;;;0.80;0.70;;;24.90;96.60;;;;;;5096555;28;20436;-82
2022/09/17 11:34:46;;;;;;;1.10;1.00;;;24.90;96.70;;;;;;5096536;28;20439;-82
2022/09/17 11:37:19;;;;;;;0.93;0.80;;;24.90;97.00;;;;;;5096331;28;20486;-82
2022/09/17 11:39:49;;;;;;;2.23;0.80;;;24.90;96.90;;;;;;5096318;28;20440;-87
2022/09/17 11:42:19;;;;;;;0.80;0.60;;;24.90;97.00;;;;;;5096267;28;20440;-81
2022/09/17 11:44:51;;;;;;;1.37;0.70;;;24.90;96.90;;;;;;5096267;28;20797;-81
2022/09/17 11:47:22;;;;;;;1.00;0.80;;;24.90;97.00;;;;;;5095665;28;20432;-82
2022/09/17 11:49:54;;;;;;;2.70;0.80;;;24.90;96.90;;;;;;5095849;28;20450;-86
2022/09/17 11:52:25;;;;;;;0.80;0.60;;;24.90;97.00;;;;;;5095984;28;21003;-81
2022/09/17 11:54:57;;;;;;;1.00;0.80;;;24.90;96.90;;;;;;5096569;28;20523;-82
2022/09/17 11:57:27;;;;;;;0.83;0.73;;;24.80;96.90;;;;;;5096305;28;20436;-81
2022/09/17 12:00:04;;;;;;;0.80;0.63;;;24.90;97.00;;;;;;5095822;28;21029;-81
2022/09/17 12:02:44;;;;;;;0.80;0.60;;;24.90;97.30;;;;;;5096091;28;20440;-86
2022/09/17 12:05:17;;;;;;;0.80;0.60;;;24.90;96.80;;;;;;5096090;28;20455;-81
2022/09/17 12:07:50;;;;;;;0.80;0.60;;;24.90;97.10;;;;;;5095892;28;20436;-81
2022/09/17 12:10:37;;;;;;;0.80;0.70;;;24.90;97.20;;;;;;5095871;28;20507;-81
2022/09/17 12:13:23;;;;;;;0.80;0.60;;;24.90;97.10;;;;;;5095452;28;20472;-87
2022/09/17 12:16:04;;;;;;;0.70;0.60;;;24.90;97.00;;;;;;5095808;28;20446;-81
2022/09/17 12:18:42;;;;;;;0.90;0.70;;;24.90;97.40;;;;;;5095489;28;20845;-87
2022/09/17 12:21:13;;;;;;;1.30;0.70;;;24.90;96.80;;;;;;5095601;28;20451;-81
2022/09/17 12:23:45;;;;;;;1.63;0.90;;;24.90;96.80;;;;;;5095785;28;20446;-86
2022/09/17 12:26:24;;;;;;;0.80;0.60;;;24.90;96.90;;;;;;5095625;28;20436;-82
2022/09/17 12:28:59;;;;;;;0.90;0.70;;;24.90;96.50;;;;;;5095561;28;20472;-81
2022/09/17 12:31:32;;;;;;;0.90;0.60;;;24.90;96.70;;;;;;5095513;28;20446;-81
2022/09/17 12:34:18;;;;;;;0.90;0.80;;;24.90;96.70;;;;;;5095463;28;20487;-81
2022/09/17 12:36:51;;;;;;;1.10;0.87;;;24.90;96.80;;;;;;5095566;28;20906;-81
2022/09/17 12:39:48;;;;;;;1.13;0.80;;;24.90;96.90;;;;;;5095269;28;20568;-81
2022/09/17 12:42:25;;;;;;;0.90;0.70;;;24.90;96.90;;;;;;5092863;28;20490;-81
2022/09/17 12:45:18;;;;;;;0.80;0.63;;;24.90;96.80;;;;;;5095100;28;20444;-81
2022/09/17 12:48:15;;;;;;;0.80;0.70;;;24.90;96.70;;;;;;5094856;28;20513;-81
2022/09/17 12:50:55;;;;;;;1.00;0.80;;;24.90;96.60;;;;;;5086690;28;20486;-81
2022/09/17 12:53:29;;;;;;;0.80;0.60;;;24.90;96.80;;;;;;5094798;28;20483;-81
2022/09/17 12:56:05;;;;;;;1.10;0.70;;;24.80;96.90;;;;;;5095142;28;20439;-81
2022/09/17 12:58:56;;;;;;;0.90;0.60;;;24.90;96.90;;;;;;5094941;28;20427;-81
2022/09/17 13:01:30;;;;;;;0.83;0.60;;;24.90;96.60;;;;;;5094692;28;20433;-81
2022/09/17 13:04:11;;;;;;;0.80;0.60;;;24.90;96.80;;;;;;5095086;28;20817;-82
2022/09/17 13:07:01;;;;;;;0.90;0.70;;;24.90;96.80;;;;;;5095005;28;20481;-82
2022/09/17 13:09:46;;;;;;;0.90;0.60;;;24.90;96.80;;;;;;5094983;28;20556;-81
2022/09/17 13:12:25;;;;;;;0.90;0.67;;;24.90;96.60;;;;;;5094709;28;20497;-87
2022/09/17 13:15:06;;;;;;;9.53;1.00;;;24.90;96.60;;;;;;5094497;28;20443;-80